VLG15VM LEBL-LEBB
Flight info
| Callsign | VLG15VM |
|---|---|
| Flight time | 0h 55m |
| Altitude | 29000 |
| Route | GRAUS M601 CEGAM |
| Aircraft | A320/M-SDE3FGHIRWY/LB1 |
Departure
| Time | 2026-04-29 18:28 |
|---|---|
| Airport | Josep Tarradellas Barcelona-El Prat Airport (LEBL) |
Arrival
| Time | 2026-04-29 19:24 |
|---|---|
| Airport | Bilbao Airport (LEBB) |
| Time | Latitude | Longitude | Altitude | Speed | Heading |
|---|---|---|---|---|---|
| 2026-04-29 18:10 | 41.29191 | 2.08066 | 24 ft | 0 kts | 155° |
| 2026-04-29 18:17 | 41.29201 | 2.08060 | 24 ft | 2 kts | 155° |
| 2026-04-29 18:17 | 41.29215 | 2.08051 | 24 ft | 2 kts | 156° |
| 2026-04-29 18:18 | 41.29229 | 2.08043 | 24 ft | 2 kts | 155° |
| 2026-04-29 18:18 | 41.29239 | 2.08037 | 24 ft | 0 kts | 156° |
| 2026-04-29 18:18 | 41.29251 | 2.08028 | 24 ft | 2 kts | 127° |
| 2026-04-29 18:18 | 41.29258 | 2.08009 | 24 ft | 2 kts | 98° |
| 2026-04-29 18:19 | 41.29256 | 2.07991 | 24 ft | 0 kts | 70° |
| 2026-04-29 18:19 | 41.29254 | 2.07984 | 24 ft | 1 kts | 64° |
| 2026-04-29 18:19 | 41.29253 | 2.07981 | 24 ft | 0 kts | 65° |
| 2026-04-29 18:23 | 41.29254 | 2.07984 | 24 ft | 1 kts | 65° |
| 2026-04-29 18:23 | 41.29266 | 2.08020 | 24 ft | 6 kts | 66° |
| 2026-04-29 18:23 | 41.29297 | 2.08113 | 24 ft | 14 kts | 66° |
| 2026-04-29 18:23 | 41.29349 | 2.08253 | 24 ft | 17 kts | 64° |
| 2026-04-29 18:24 | 41.29362 | 2.08379 | 24 ft | 14 kts | 138° |
| 2026-04-29 18:24 | 41.29344 | 2.08395 | 24 ft | 3 kts | 148° |
| 2026-04-29 18:24 | 41.29285 | 2.08438 | 24 ft | 16 kts | 156° |
| 2026-04-29 18:24 | 41.29157 | 2.08429 | 24 ft | 19 kts | 198° |
| 2026-04-29 18:25 | 41.29028 | 2.08375 | 24 ft | 19 kts | 197° |
| 2026-04-29 18:25 | 41.28897 | 2.08310 | 24 ft | 19 kts | 201° |
| 2026-04-29 18:25 | 41.28766 | 2.08248 | 24 ft | 20 kts | 198° |
| 2026-04-29 18:25 | 41.28657 | 2.08150 | 24 ft | 19 kts | 245° |
| 2026-04-29 18:26 | 41.28602 | 2.07980 | 24 ft | 20 kts | 247° |
| 2026-04-29 18:26 | 41.28545 | 2.07811 | 24 ft | 20 kts | 244° |
| 2026-04-29 18:26 | 41.28486 | 2.07641 | 24 ft | 20 kts | 246° |
| 2026-04-29 18:26 | 41.28432 | 2.07484 | 24 ft | 14 kts | 234° |
| 2026-04-29 18:27 | 41.28336 | 2.07423 | 23 ft | 15 kts | 200° |
| 2026-04-29 18:27 | 41.28247 | 2.07415 | 23 ft | 12 kts | 140° |
| 2026-04-29 18:27 | 41.28261 | 2.07535 | 23 ft | 23 kts | 68° |
| 2026-04-29 18:27 | 41.28424 | 2.07999 | 24 ft | 86 kts | 68° |
| 2026-04-29 18:28 | 41.28751 | 2.08957 | 24 ft | 139 kts | 65° |
| 2026-04-29 18:28 | 41.29208 | 2.10285 | 229 ft | 164 kts | 65° |
| 2026-04-29 18:28 | 41.29623 | 2.11647 | 853 ft | 159 kts | 78° |
| 2026-04-29 18:28 | 41.29630 | 2.13090 | 1499 ft | 158 kts | 97° |
| 2026-04-29 18:29 | 41.29436 | 2.14513 | 2018 ft | 163 kts | 98° |
| 2026-04-29 18:29 | 41.29306 | 2.15518 | 2285 ft | 172 kts | 97° |
| 2026-04-29 18:29 | 41.29244 | 2.16048 | 2435 ft | 176 kts | 96° |
| 2026-04-29 18:29 | 41.29081 | 2.17692 | 2957 ft | 184 kts | 95° |
| 2026-04-29 18:30 | 41.28941 | 2.19409 | 3548 ft | 188 kts | 94° |
| 2026-04-29 18:30 | 41.28836 | 2.21128 | 4150 ft | 191 kts | 94° |
| 2026-04-29 18:30 | 41.28757 | 2.22898 | 4772 ft | 194 kts | 93° |
| 2026-04-29 18:30 | 41.28856 | 2.24715 | 5212 ft | 208 kts | 72° |
| 2026-04-29 18:31 | 41.29627 | 2.26454 | 5495 ft | 230 kts | 54° |
| 2026-04-29 18:31 | 41.30666 | 2.28182 | 5836 ft | 250 kts | 52° |
| 2026-04-29 18:31 | 41.31849 | 2.29990 | 6240 ft | 268 kts | 43° |
| 2026-04-29 18:31 | 41.33512 | 2.31188 | 6681 ft | 284 kts | 12° |
| 2026-04-29 18:32 | 41.35509 | 2.31565 | 7342 ft | 290 kts | 5° |
| 2026-04-29 18:32 | 41.39563 | 2.32131 | 8698 ft | 298 kts | 7° |
| 2026-04-29 18:32 | 41.41617 | 2.32526 | 9312 ft | 301 kts | 9° |
| 2026-04-29 18:33 | 41.43722 | 2.32762 | 9852 ft | 304 kts | 352° |
| 2026-04-29 18:33 | 41.45673 | 2.31770 | 10368 ft | 305 kts | 320° |
| 2026-04-29 18:33 | 41.47035 | 2.29648 | 10967 ft | 302 kts | 299° |
| 2026-04-29 18:33 | 41.48047 | 2.27228 | 11515 ft | 302 kts | 292° |
| 2026-04-29 18:34 | 41.48831 | 2.24624 | 12030 ft | 303 kts | 287° |
| 2026-04-29 18:34 | 41.49298 | 2.22839 | 12399 ft | 305 kts | 286° |
| 2026-04-29 18:34 | 41.50218 | 2.19249 | 13175 ft | 307 kts | 286° |
| 2026-04-29 18:34 | 41.50919 | 2.16572 | 13752 ft | 309 kts | 286° |
| 2026-04-29 18:35 | 41.51632 | 2.13877 | 14164 ft | 315 kts | 286° |
| 2026-04-29 18:35 | 41.52385 | 2.11043 | 14401 ft | 329 kts | 287° |
| 2026-04-29 18:35 | 41.53168 | 2.08114 | 14658 ft | 341 kts | 287° |
| 2026-04-29 18:35 | 41.53974 | 2.05120 | 14962 ft | 351 kts | 287° |
| 2026-04-29 18:36 | 41.54805 | 2.02047 | 15467 ft | 355 kts | 288° |
| 2026-04-29 18:36 | 41.55648 | 1.98934 | 16000 ft | 357 kts | 288° |
| 2026-04-29 18:36 | 41.56492 | 1.95814 | 16499 ft | 360 kts | 288° |
| 2026-04-29 18:36 | 41.57346 | 1.92653 | 16982 ft | 362 kts | 288° |
| 2026-04-29 18:37 | 41.58198 | 1.89493 | 17451 ft | 364 kts | 288° |
| 2026-04-29 18:37 | 41.59056 | 1.86316 | 17910 ft | 367 kts | 288° |
| 2026-04-29 18:37 | 41.59924 | 1.83095 | 18393 ft | 370 kts | 288° |
| 2026-04-29 18:37 | 41.60802 | 1.79825 | 18884 ft | 372 kts | 288° |
| 2026-04-29 18:38 | 41.61673 | 1.76584 | 19344 ft | 374 kts | 288° |
| 2026-04-29 18:38 | 41.62549 | 1.73318 | 19791 ft | 377 kts | 288° |
| 2026-04-29 18:38 | 41.63443 | 1.69981 | 20243 ft | 380 kts | 288° |
| 2026-04-29 18:38 | 41.64329 | 1.66667 | 20683 ft | 382 kts | 288° |
| 2026-04-29 18:39 | 41.65217 | 1.63340 | 21108 ft | 384 kts | 288° |
| 2026-04-29 18:39 | 41.66113 | 1.59983 | 21535 ft | 386 kts | 288° |
| 2026-04-29 18:39 | 41.67021 | 1.56572 | 21963 ft | 389 kts | 288° |
| 2026-04-29 18:39 | 41.67936 | 1.53136 | 22379 ft | 392 kts | 288° |
| 2026-04-29 18:40 | 41.68839 | 1.49739 | 22772 ft | 394 kts | 288° |
| 2026-04-29 18:40 | 41.69762 | 1.46260 | 23137 ft | 396 kts | 288° |
| 2026-04-29 18:40 | 41.70686 | 1.42772 | 23499 ft | 399 kts | 288° |
| 2026-04-29 18:40 | 41.71605 | 1.39297 | 23856 ft | 401 kts | 288° |
| 2026-04-29 18:41 | 41.74414 | 1.28632 | 24950 ft | 407 kts | 287° |
| 2026-04-29 18:41 | 41.75353 | 1.25059 | 25300 ft | 409 kts | 287° |
| 2026-04-29 18:42 | 41.76300 | 1.21448 | 25663 ft | 411 kts | 287° |
| 2026-04-29 18:42 | 41.77233 | 1.17848 | 26090 ft | 410 kts | 288° |
| 2026-04-29 18:42 | 41.78190 | 1.14243 | 26529 ft | 409 kts | 287° |
| 2026-04-29 18:42 | 41.79129 | 1.10656 | 26984 ft | 408 kts | 287° |
| 2026-04-29 18:43 | 41.80063 | 1.07074 | 27418 ft | 407 kts | 287° |
| 2026-04-29 18:43 | 41.80993 | 1.03530 | 27796 ft | 408 kts | 287° |
| 2026-04-29 18:43 | 41.81923 | 0.99920 | 28121 ft | 411 kts | 287° |
| 2026-04-29 18:43 | 41.82857 | 0.96273 | 28482 ft | 412 kts | 288° |
| 2026-04-29 18:44 | 41.83799 | 0.92661 | 28830 ft | 413 kts | 287° |
| 2026-04-29 18:44 | 41.84755 | 0.89041 | 29005 ft | 415 kts | 287° |
| 2026-04-29 18:44 | 41.86635 | 0.81716 | 29096 ft | 414 kts | 287° |
| 2026-04-29 18:45 | 41.87365 | 0.78851 | 29104 ft | 414 kts | 289° |
| 2026-04-29 18:45 | 41.88514 | 0.74372 | 29028 ft | 415 kts | 289° |
| 2026-04-29 18:46 | 41.90142 | 0.68148 | 29001 ft | 414 kts | 286° |
| 2026-04-29 18:46 | 41.92005 | 0.60831 | 28975 ft | 414 kts | 285° |
| 2026-04-29 18:47 | 41.93864 | 0.53531 | 28977 ft | 414 kts | 286° |
| 2026-04-29 18:47 | 41.95719 | 0.46244 | 28971 ft | 414 kts | 286° |
| 2026-04-29 18:48 | 41.97632 | 0.38940 | 28974 ft | 414 kts | 288° |
| 2026-04-29 18:48 | 42.00026 | 0.31912 | 28967 ft | 415 kts | 293° |
| 2026-04-29 18:49 | 42.01896 | 0.26934 | 28878 ft | 414 kts | 296° |
| 2026-04-29 18:49 | 42.04496 | 0.19992 | 28982 ft | 415 kts | 297° |
| 2026-04-29 18:50 | 42.07115 | 0.13068 | 29009 ft | 415 kts | 297° |
| 2026-04-29 18:50 | 42.09713 | 0.06119 | 29027 ft | 415 kts | 295° |
| 2026-04-29 18:51 | 42.12309 | -0.00805 | 29022 ft | 417 kts | 293° |
| 2026-04-29 18:51 | 42.14889 | -0.07832 | 28988 ft | 418 kts | 294° |
| 2026-04-29 18:52 | 42.17484 | -0.14846 | 28993 ft | 418 kts | 294° |
| 2026-04-29 18:52 | 42.20079 | -0.21853 | 29003 ft | 417 kts | 293° |
| 2026-04-29 18:53 | 42.22662 | -0.28839 | 29007 ft | 416 kts | 292° |
| 2026-04-29 18:53 | 42.25216 | -0.35793 | 29006 ft | 416 kts | 292° |
| 2026-04-29 18:54 | 42.27783 | -0.42808 | 29000 ft | 416 kts | 292° |
| 2026-04-29 18:54 | 42.30331 | -0.49786 | 28994 ft | 416 kts | 292° |
| 2026-04-29 18:55 | 42.32881 | -0.56786 | 28993 ft | 416 kts | 292° |
| 2026-04-29 18:55 | 42.35435 | -0.63801 | 28992 ft | 415 kts | 292° |
| 2026-04-29 18:56 | 42.37969 | -0.70781 | 28990 ft | 415 kts | 292° |
| 2026-04-29 18:56 | 42.40519 | -0.77826 | 28982 ft | 415 kts | 291° |
| 2026-04-29 18:57 | 42.43042 | -0.84818 | 28973 ft | 415 kts | 292° |
| 2026-04-29 18:57 | 42.45566 | -0.91824 | 28966 ft | 414 kts | 291° |
| 2026-04-29 18:58 | 42.48082 | -0.98835 | 28963 ft | 414 kts | 291° |
| 2026-04-29 18:58 | 42.50575 | -1.05800 | 28950 ft | 414 kts | 292° |
| 2026-04-29 18:59 | 42.53093 | -1.12836 | 28758 ft | 414 kts | 292° |
| 2026-04-29 18:59 | 42.54345 | -1.16341 | 28554 ft | 412 kts | 292° |
| 2026-04-29 18:59 | 42.55588 | -1.19824 | 28350 ft | 410 kts | 292° |
| 2026-04-29 19:00 | 42.56813 | -1.23263 | 28146 ft | 407 kts | 292° |
| 2026-04-29 19:00 | 42.58046 | -1.26729 | 27912 ft | 405 kts | 292° |
| 2026-04-29 19:00 | 42.59253 | -1.30128 | 27637 ft | 403 kts | 291° |
| 2026-04-29 19:00 | 42.60472 | -1.33568 | 27359 ft | 404 kts | 291° |
| 2026-04-29 19:01 | 42.61682 | -1.36986 | 27084 ft | 404 kts | 292° |
| 2026-04-29 19:01 | 42.62894 | -1.40406 | 26809 ft | 405 kts | 292° |
| 2026-04-29 19:01 | 42.64124 | -1.43882 | 26509 ft | 406 kts | 292° |
| 2026-04-29 19:01 | 42.65332 | -1.47301 | 26140 ft | 407 kts | 292° |
| 2026-04-29 19:02 | 42.66553 | -1.50761 | 25663 ft | 408 kts | 292° |
| 2026-04-29 19:02 | 42.67369 | -1.53080 | 25286 ft | 409 kts | 292° |
| 2026-04-29 19:02 | 42.69006 | -1.57733 | 24463 ft | 408 kts | 292° |
| 2026-04-29 19:02 | 42.70222 | -1.61195 | 23973 ft | 404 kts | 292° |
| 2026-04-29 19:03 | 42.71411 | -1.64585 | 23494 ft | 400 kts | 292° |
| 2026-04-29 19:03 | 42.72618 | -1.67993 | 23011 ft | 397 kts | 292° |
| 2026-04-29 19:03 | 42.73933 | -1.71298 | 22532 ft | 395 kts | 296° |
| 2026-04-29 19:03 | 42.75361 | -1.74451 | 22066 ft | 392 kts | 298° |
| 2026-04-29 19:04 | 42.76814 | -1.77539 | 21598 ft | 390 kts | 298° |
| 2026-04-29 19:04 | 42.78274 | -1.80625 | 21145 ft | 386 kts | 298° |
| 2026-04-29 19:04 | 42.79719 | -1.83688 | 20699 ft | 384 kts | 298° |
| 2026-04-29 19:04 | 42.81157 | -1.86745 | 20246 ft | 382 kts | 298° |
| 2026-04-29 19:05 | 42.82568 | -1.89755 | 19791 ft | 380 kts | 298° |
| 2026-04-29 19:05 | 42.83988 | -1.92785 | 19326 ft | 379 kts | 298° |
| 2026-04-29 19:05 | 42.85406 | -1.95813 | 18857 ft | 377 kts | 298° |
| 2026-04-29 19:05 | 42.86810 | -1.98811 | 18392 ft | 375 kts | 299° |
| 2026-04-29 19:06 | 42.88199 | -2.01781 | 17934 ft | 373 kts | 299° |
| 2026-04-29 19:06 | 42.89590 | -2.04760 | 17473 ft | 371 kts | 299° |
| 2026-04-29 19:06 | 42.92348 | -2.10675 | 16550 ft | 369 kts | 299° |
| 2026-04-29 19:07 | 42.93704 | -2.13586 | 16092 ft | 368 kts | 299° |
| 2026-04-29 19:07 | 42.94620 | -2.15557 | 15780 ft | 366 kts | 299° |
| 2026-04-29 19:07 | 42.96442 | -2.19478 | 15162 ft | 364 kts | 299° |
| 2026-04-29 19:07 | 42.97785 | -2.22371 | 14712 ft | 363 kts | 299° |
| 2026-04-29 19:08 | 42.99140 | -2.25280 | 14262 ft | 360 kts | 299° |
| 2026-04-29 19:08 | 43.00482 | -2.28136 | 13804 ft | 357 kts | 299° |
| 2026-04-29 19:08 | 43.01815 | -2.30969 | 13355 ft | 355 kts | 299° |
| 2026-04-29 19:08 | 43.03139 | -2.33784 | 12909 ft | 352 kts | 299° |
| 2026-04-29 19:09 | 43.04460 | -2.36600 | 12464 ft | 351 kts | 299° |
| 2026-04-29 19:09 | 43.05763 | -2.39384 | 12023 ft | 349 kts | 299° |
| 2026-04-29 19:09 | 43.07067 | -2.42171 | 11586 ft | 347 kts | 299° |
| 2026-04-29 19:09 | 43.08367 | -2.44959 | 11149 ft | 344 kts | 299° |
| 2026-04-29 19:10 | 43.09642 | -2.47694 | 10720 ft | 342 kts | 299° |
| 2026-04-29 19:10 | 43.10927 | -2.50454 | 10289 ft | 339 kts | 299° |
| 2026-04-29 19:10 | 43.12181 | -2.53146 | 10146 ft | 327 kts | 299° |
| 2026-04-29 19:10 | 43.13380 | -2.55719 | 10020 ft | 316 kts | 299° |
| 2026-04-29 19:11 | 43.14535 | -2.58201 | 9890 ft | 306 kts | 299° |
| 2026-04-29 19:11 | 43.15688 | -2.60685 | 9532 ft | 305 kts | 299° |
| 2026-04-29 19:11 | 43.16810 | -2.63101 | 9172 ft | 297 kts | 299° |
| 2026-04-29 19:11 | 43.17894 | -2.65436 | 8791 ft | 293 kts | 298° |
| 2026-04-29 19:12 | 43.19002 | -2.67826 | 8465 ft | 291 kts | 299° |
| 2026-04-29 19:12 | 43.20068 | -2.70127 | 8129 ft | 289 kts | 299° |
| 2026-04-29 19:12 | 43.21155 | -2.72476 | 7783 ft | 289 kts | 299° |
| 2026-04-29 19:12 | 43.21874 | -2.74029 | 7551 ft | 289 kts | 299° |
| 2026-04-29 19:13 | 43.23298 | -2.77109 | 7088 ft | 289 kts | 299° |
| 2026-04-29 19:13 | 43.24378 | -2.79447 | 6747 ft | 289 kts | 300° |
| 2026-04-29 19:13 | 43.25438 | -2.81744 | 6423 ft | 287 kts | 300° |
| 2026-04-29 19:13 | 43.26506 | -2.84056 | 6092 ft | 286 kts | 300° |
| 2026-04-29 19:14 | 43.27575 | -2.86371 | 5764 ft | 286 kts | 300° |
| 2026-04-29 19:14 | 43.28638 | -2.88677 | 5514 ft | 281 kts | 300° |
| 2026-04-29 19:14 | 43.29643 | -2.90855 | 5486 ft | 262 kts | 300° |
| 2026-04-29 19:14 | 43.30680 | -2.92888 | 5484 ft | 254 kts | 307° |
| 2026-04-29 19:15 | 43.31820 | -2.94689 | 5505 ft | 250 kts | 310° |
| 2026-04-29 19:15 | 43.32995 | -2.96445 | 5530 ft | 250 kts | 311° |
| 2026-04-29 19:15 | 43.34182 | -2.98204 | 5358 ft | 250 kts | 311° |
| 2026-04-29 19:15 | 43.35368 | -2.99965 | 5110 ft | 248 kts | 311° |
| 2026-04-29 19:16 | 43.36521 | -3.01683 | 4866 ft | 247 kts | 311° |
| 2026-04-29 19:16 | 43.37689 | -3.03429 | 4623 ft | 245 kts | 311° |
| 2026-04-29 19:16 | 43.38834 | -3.05144 | 4427 ft | 245 kts | 311° |
| 2026-04-29 19:16 | 43.39985 | -3.06871 | 4230 ft | 244 kts | 311° |
| 2026-04-29 19:17 | 43.41134 | -3.08595 | 4033 ft | 243 kts | 311° |
| 2026-04-29 19:17 | 43.42262 | -3.10289 | 3883 ft | 243 kts | 311° |
| 2026-04-29 19:17 | 43.43413 | -3.12019 | 3759 ft | 243 kts | 311° |
| 2026-04-29 19:17 | 43.44545 | -3.13718 | 3637 ft | 243 kts | 311° |
| 2026-04-29 19:18 | 43.45609 | -3.15521 | 3530 ft | 241 kts | 294° |
| 2026-04-29 19:18 | 43.45921 | -3.16968 | 3526 ft | 237 kts | 269° |
| 2026-04-29 19:18 | 43.45300 | -3.19754 | 3537 ft | 227 kts | 225° |
| 2026-04-29 19:18 | 43.44089 | -3.21003 | 3539 ft | 219 kts | 196° |
| 2026-04-29 19:19 | 43.42604 | -3.21279 | 3539 ft | 213 kts | 169° |
| 2026-04-29 19:19 | 43.41252 | -3.20563 | 3532 ft | 210 kts | 140° |
| 2026-04-29 19:19 | 43.40300 | -3.19032 | 3533 ft | 211 kts | 122° |
| 2026-04-29 19:19 | 43.39629 | -3.17244 | 3527 ft | 209 kts | 116° |
| 2026-04-29 19:20 | 43.39032 | -3.15433 | 3523 ft | 206 kts | 116° |
| 2026-04-29 19:20 | 43.38442 | -3.13703 | 3487 ft | 195 kts | 117° |
| 2026-04-29 19:20 | 43.37848 | -3.12042 | 3290 ft | 194 kts | 118° |
| 2026-04-29 19:20 | 43.37240 | -3.10389 | 3026 ft | 195 kts | 118° |
| 2026-04-29 19:21 | 43.36623 | -3.08727 | 2761 ft | 196 kts | 118° |
| 2026-04-29 19:21 | 43.36001 | -3.07054 | 2492 ft | 198 kts | 118° |
| 2026-04-29 19:21 | 43.35368 | -3.05345 | 2216 ft | 201 kts | 118° |
| 2026-04-29 19:21 | 43.34743 | -3.03653 | 1935 ft | 196 kts | 118° |
| 2026-04-29 19:22 | 43.34141 | -3.02022 | 1677 ft | 187 kts | 117° |
| 2026-04-29 19:22 | 43.33572 | -3.00477 | 1489 ft | 175 kts | 117° |
| 2026-04-29 19:22 | 43.33043 | -2.99041 | 1257 ft | 163 kts | 117° |
| 2026-04-29 19:22 | 43.32544 | -2.97693 | 989 ft | 152 kts | 118° |
| 2026-04-29 19:23 | 43.32092 | -2.96456 | 790 ft | 139 kts | 117° |
| 2026-04-29 19:23 | 43.31674 | -2.95303 | 588 ft | 132 kts | 118° |
| 2026-04-29 19:23 | 43.31261 | -2.94188 | 432 ft | 131 kts | 117° |
| 2026-04-29 19:23 | 43.30847 | -2.93068 | 251 ft | 130 kts | 117° |
| 2026-04-29 19:24 | 43.30444 | -2.91968 | 144 ft | 125 kts | 117° |
| 2026-04-29 19:24 | 43.30190 | -2.91280 | 150 ft | 37 kts | 115° |
| 2026-04-29 19:24 | 43.30105 | -2.91006 | 153 ft | 22 kts | 102° |
| 2026-04-29 19:24 | 43.30084 | -2.90803 | 154 ft | 20 kts | 97° |
| 2026-04-29 19:25 | 43.30087 | -2.90637 | 156 ft | 14 kts | 50° |
| 2026-04-29 19:25 | 43.30169 | -2.90566 | 157 ft | 13 kts | 27° |
| 2026-04-29 19:25 | 43.30253 | -2.90536 | 159 ft | 12 kts | 335° |
| 2026-04-29 19:25 | 43.30322 | -2.90598 | 161 ft | 11 kts | 324° |
| 2026-04-29 19:26 | 43.30364 | -2.90683 | 163 ft | 11 kts | 297° |
| 2026-04-29 19:26 | 43.30401 | -2.90705 | 163 ft | 4 kts | 14° |
| 2026-04-29 19:26 | 43.30426 | -2.90697 | 164 ft | 3 kts | 20° |
| 2026-04-29 19:26 | 43.30442 | -2.90687 | 165 ft | 1 kts | 26° |